Time;durP1;ratioP1;P1;durP2;ratioP2;P2;SDS_P1;SDS_P2;PMS_P1;PMS_P2;Temp;Humidity;BMP_temperature;BMP_pressure;BME280_temperature;BME280_humidity;BME280_pressure;Samples;Min_cycle;Max_cycle;Signal;HPM_P1;HPM_P2
2023/12/02 00:00:33;;;;;;;21.67;19.45;;;-0.40;99.90;;;;;;5005054;28;20085;-32
2023/12/02 00:02:58;;;;;;;20.90;18.70;;;-0.40;99.90;;;;;;5009215;28;20458;-34
2023/12/02 00:05:24;;;;;;;21.23;18.02;;;-0.40;99.90;;;;;;5001013;28;20109;-35
2023/12/02 00:07:50;;;;;;;19.63;14.68;;;-0.40;99.90;;;;;;5018213;28;20381;-34
2023/12/02 00:10:15;;;;;;;22.48;20.05;;;-0.40;99.90;;;;;;5007926;28;20088;-33
2023/12/02 00:12:41;;;;;;;18.52;16.50;;;-0.40;99.90;;;;;;5006009;28;20061;-34
2023/12/02 00:15:07;;;;;;;19.10;16.92;;;-0.40;99.90;;;;;;5006566;28;20158;-34
2023/12/02 00:17:33;;;;;;;22.00;19.65;;;-0.50;99.90;;;;;;5007068;28;20057;-33
2023/12/02 00:19:58;;;;;;;21.00;18.83;;;-0.50;99.90;;;;;;5008010;28;20415;-39
2023/12/02 00:22:24;;;;;;;21.48;19.35;;;-0.50;99.90;;;;;;5005921;28;20050;-34
2023/12/02 00:24:50;;;;;;;19.27;14.68;;;-0.50;99.90;;;;;;5006160;28;20042;-33
2023/12/02 00:27:17;;;;;;;18.58;16.58;;;-0.50;99.90;;;;;;5005440;28;20463;-34
2023/12/02 00:29:43;;;;;;;20.48;18.30;;;-0.50;99.90;;;;;;5005869;28;20049;-34
2023/12/02 00:32:09;;;;;;;20.20;18.00;;;-0.50;99.90;;;;;;5005633;28;20057;-33
2023/12/02 00:34:34;;;;;;;21.27;15.80;;;-0.50;99.90;;;;;;5005006;28;20050;-34
2023/12/02 00:37:00;;;;;;;20.25;16.10;;;-0.50;99.90;;;;;;5012103;28;20062;-33
2023/12/02 00:39:27;;;;;;;20.45;16.35;;;-0.50;99.90;;;;;;5006800;28;20050;-34
2023/12/02 00:41:53;;;;;;;20.90;18.27;;;-0.50;99.90;;;;;;5007909;28;20057;-41
2023/12/02 00:44:19;;;;;;;20.75;16.70;;;-0.50;99.90;;;;;;5004181;28;20057;-35
2023/12/02 00:46:45;;;;;;;22.10;17.25;;;-0.50;99.90;;;;;;5008952;28;20672;-33
2023/12/02 00:49:11;;;;;;;20.80;16.95;;;-0.50;99.90;;;;;;5006205;28;20053;-33
2023/12/02 00:51:36;;;;;;;21.60;16.83;;;-0.50;99.90;;;;;;5008733;28;20049;-34
2023/12/02 00:54:02;;;;;;;18.83;16.00;;;-0.50;99.90;;;;;;5006324;28;20412;-34
2023/12/02 00:56:28;;;;;;;18.67;15.07;;;-0.50;99.90;;;;;;5002603;28;20048;-34
2023/12/02 00:58:54;;;;;;;17.88;13.88;;;-0.40;99.90;;;;;;4998625;28;20046;-33
2023/12/02 01:01:19;;;;;;;20.02;16.70;;;-0.40;99.90;;;;;;5007099;28;20455;-33
2023/12/02 01:03:45;;;;;;;20.90;15.10;;;-0.40;99.90;;;;;;5003218;28;20050;-34
2023/12/02 01:06:11;;;;;;;20.80;14.65;;;-0.40;99.90;;;;;;5004300;28;20046;-32
2023/12/02 01:08:37;;;;;;;17.73;13.10;;;-0.40;99.90;;;;;;5010654;28;20136;-33
2023/12/02 01:11:02;;;;;;;22.17;17.65;;;-0.40;99.90;;;;;;5004913;28;20124;-38
2023/12/02 01:13:28;;;;;;;18.17;12.52;;;-0.40;99.90;;;;;;5002267;28;20088;-34
2023/12/02 01:15:54;;;;;;;19.70;14.50;;;-0.40;99.90;;;;;;5004893;28;20050;-33
2023/12/02 01:18:19;;;;;;;21.35;15.23;;;-0.40;99.90;;;;;;5006920;28;20061;-33
2023/12/02 01:20:45;;;;;;;16.73;13.10;;;-0.40;99.90;;;;;;5001168;28;20049;-33
2023/12/02 01:23:11;;;;;;;20.17;13.70;;;-0.40;99.90;;;;;;5015490;28;20060;-34
2023/12/02 01:25:37;;;;;;;20.35;14.07;;;-0.40;99.90;;;;;;5007731;28;20058;-34
2023/12/02 01:28:03;;;;;;;21.55;13.48;;;-0.40;99.90;;;;;;5007521;28;20080;-34
2023/12/02 01:30:29;;;;;;;20.52;17.58;;;-0.40;99.90;;;;;;5005410;28;20416;-33
2023/12/02 01:32:55;;;;;;;22.63;13.45;;;-0.40;99.90;;;;;;5017897;28;20062;-41
2023/12/02 01:35:20;;;;;;;18.27;13.10;;;-0.40;99.90;;;;;;5010969;28;20108;-33
2023/12/02 01:37:46;;;;;;;21.25;17.00;;;-0.40;99.90;;;;;;5011927;28;20133;-33
2023/12/02 01:40:12;;;;;;;21.85;19.05;;;-0.40;99.90;;;;;;5009522;28;20570;-34
2023/12/02 01:42:39;;;;;;;20.05;13.10;;;-0.40;99.90;;;;;;5001871;28;20116;-33
2023/12/02 01:45:05;;;;;;;20.40;17.20;;;-0.40;99.90;;;;;;5009424;28;20050;-35
2023/12/02 01:47:31;;;;;;;22.77;18.13;;;-0.40;99.90;;;;;;5014835;28;20535;-34
2023/12/02 01:50:00;;;;;;;21.05;15.80;;;-0.40;99.90;;;;;;5018356;28;20104;-34
2023/12/02 01:52:26;;;;;;;20.25;15.55;;;-0.40;99.90;;;;;;5016220;28;20130;-34
2023/12/02 01:54:52;;;;;;;22.15;16.55;;;-0.40;99.90;;;;;;5010063;28;20089;-34
2023/12/02 01:57:20;;;;;;;20.40;16.45;;;-0.40;99.90;;;;;;5013556;28;20065;-34
2023/12/02 01:59:54;;;;;;;21.95;16.55;;;-0.40;99.90;;;;;;4999280;28;20049;-34
2023/12/02 02:02:20;;;;;;;22.30;17.98;;;-0.40;99.90;;;;;;5008572;28;20042;-34
2023/12/02 02:04:46;;;;;;;21.20;16.05;;;-0.40;99.90;;;;;;4989775;28;20052;-33
2023/12/02 02:07:12;;;;;;;21.50;15.60;;;-0.50;99.90;;;;;;5007775;28;20045;-34
2023/12/02 02:09:46;;;;;;;20.48;14.75;;;-0.50;99.90;;;;;;5008539;28;20088;-34
2023/12/02 02:12:12;;;;;;;20.65;16.33;;;-0.50;99.90;;;;;;5005842;28;20061;-33
2023/12/02 02:14:38;;;;;;;19.05;15.98;;;-0.50;99.90;;;;;;5005006;28;20050;-38
2023/12/02 02:17:04;;;;;;;21.70;17.02;;;-0.50;99.90;;;;;;5004479;28;20054;-33
2023/12/02 02:19:31;;;;;;;21.63;16.98;;;-0.50;99.90;;;;;;5016862;28;20116;-34
2023/12/02 02:21:58;;;;;;;21.58;15.93;;;-0.50;99.90;;;;;;5008480;28;20049;-33
2023/12/02 02:24:23;;;;;;;19.02;15.23;;;-0.50;99.90;;;;;;5015352;28;20077;-33
2023/12/02 02:26:49;;;;;;;21.80;17.27;;;-0.50;99.90;;;;;;5007858;28;20092;-33
2023/12/02 02:29:15;;;;;;;20.80;16.58;;;-0.50;99.90;;;;;;5012837;28;20056;-34
2023/12/02 02:31:41;;;;;;;22.25;15.70;;;-0.60;99.90;;;;;;5014425;28;20053;-33
2023/12/02 02:34:06;;;;;;;18.15;15.10;;;-0.60;99.90;;;;;;5008070;28;20050;-34
2023/12/02 02:36:32;;;;;;;22.02;16.92;;;-0.60;99.90;;;;;;5008170;28;20411;-33
2023/12/02 02:38:58;;;;;;;21.88;17.80;;;-0.60;99.90;;;;;;5006722;28;20557;-33
2023/12/02 02:41:23;;;;;;;19.10;15.68;;;-0.60;99.90;;;;;;5005556;28;20053;-33
2023/12/02 02:43:49;;;;;;;22.00;16.58;;;-0.60;99.90;;;;;;5004388;28;20060;-33
2023/12/02 02:46:15;;;;;;;19.80;16.77;;;-0.60;99.90;;;;;;5002870;28;20050;-33
2023/12/02 02:48:41;;;;;;;19.50;15.40;;;-0.70;99.90;;;;;;5009216;28;20053;-33
2023/12/02 02:51:07;;;;;;;19.40;16.33;;;-0.70;99.90;;;;;;5005293;28;20049;-38
2023/12/02 02:53:32;;;;;;;21.20;17.20;;;-0.70;99.90;;;;;;5004512;28;20449;-33
2023/12/02 02:55:58;;;;;;;22.50;16.17;;;-0.70;99.90;;;;;;5010192;28;20057;-39
2023/12/02 02:58:24;;;;;;;23.45;21.05;;;-0.70;99.90;;;;;;5008664;28;20050;-33
2023/12/02 03:00:49;;;;;;;22.50;18.95;;;-0.60;99.90;;;;;;5005790;28;20132;-33
2023/12/02 03:03:15;;;;;;;23.15;20.60;;;-0.60;99.90;;;;;;5009826;28;20050;-33
2023/12/02 03:05:40;;;;;;;22.23;18.77;;;-0.60;99.90;;;;;;5004325;28;20094;-33
2023/12/02 03:08:06;;;;;;;22.38;20.27;;;-0.60;99.90;;;;;;5005971;28;20073;-34
2023/12/02 03:10:33;;;;;;;22.58;20.23;;;-0.70;99.90;;;;;;5006930;28;20053;-33
2023/12/02 03:12:59;;;;;;;24.00;21.55;;;-0.70;99.90;;;;;;5008514;28;20119;-33
2023/12/02 03:15:24;;;;;;;19.52;16.88;;;-0.70;99.90;;;;;;4999299;28;20058;-33
2023/12/02 03:17:50;;;;;;;21.60;16.98;;;-0.70;99.90;;;;;;5007462;28;20054;-33
2023/12/02 03:20:17;;;;;;;21.52;18.63;;;-0.70;99.90;;;;;;5005766;28;20054;-32
2023/12/02 03:22:42;;;;;;;25.20;19.05;;;-0.70;99.90;;;;;;5006158;28;20518;-34
2023/12/02 03:25:08;;;;;;;22.83;18.75;;;-0.70;99.90;;;;;;5003079;28;20050;-32
2023/12/02 03:27:33;;;;;;;22.60;17.27;;;-0.70;99.90;;;;;;5002152;28;20062;-33
2023/12/02 03:29:59;;;;;;;21.33;18.75;;;-0.70;99.90;;;;;;5006219;28;20061;-33
2023/12/02 03:32:25;;;;;;;23.33;18.80;;;-0.70;99.90;;;;;;5007423;28;20127;-33
2023/12/02 03:34:50;;;;;;;21.52;18.00;;;-0.70;99.90;;;;;;5002329;28;20054;-33
2023/12/02 03:37:16;;;;;;;19.15;16.23;;;-0.70;99.90;;;;;;5006685;28;20050;-35
2023/12/02 03:39:42;;;;;;;20.95;18.73;;;-0.70;99.90;;;;;;5007031;28;20455;-34
2023/12/02 03:42:07;;;;;;;22.33;18.30;;;-0.70;99.90;;;;;;5010732;28;20125;-33
2023/12/02 03:44:33;;;;;;;21.85;17.40;;;-0.60;99.90;;;;;;5004061;28;20062;-35
2023/12/02 03:46:59;;;;;;;20.63;16.95;;;-0.70;99.90;;;;;;5009937;28;20467;-33
2023/12/02 03:49:24;;;;;;;21.95;16.75;;;-0.70;99.90;;;;;;5008247;28;20046;-33
2023/12/02 03:51:50;;;;;;;23.23;17.77;;;-0.70;99.90;;;;;;5007352;28;20064;-33
2023/12/02 03:54:15;;;;;;;20.02;16.23;;;-0.70;99.90;;;;;;4996196;28;20472;-33
2023/12/02 03:56:41;;;;;;;19.50;15.77;;;-0.70;99.90;;;;;;5009934;28;20053;-34
2023/12/02 03:59:06;;;;;;;20.90;16.38;;;-0.70;99.90;;;;;;5004818;28;20125;-33
2023/12/02 04:01:32;;;;;;;24.67;17.98;;;-0.80;99.90;;;;;;5004487;28;20073;-32
2023/12/02 04:03:58;;;;;;;20.50;15.90;;;-0.80;99.90;;;;;;5004183;28;20046;-33
2023/12/02 04:06:23;;;;;;;22.38;16.98;;;-0.80;99.90;;;;;;5015263;28;20049;-33
2023/12/02 04:08:49;;;;;;;20.23;15.50;;;-0.80;99.90;;;;;;5014706;28;20076;-33
2023/12/02 04:11:15;;;;;;;19.40;14.60;;;-0.80;99.90;;;;;;5009134;28;20570;-33
2023/12/02 04:13:40;;;;;;;22.00;14.80;;;-0.80;99.90;;;;;;4993246;28;20127;-33
2023/12/02 04:16:06;;;;;;;21.67;15.68;;;-0.90;99.90;;;;;;5013771;28;20045;-33
2023/12/02 04:18:33;;;;;;;18.05;14.35;;;-0.90;99.90;;;;;;5018712;28;20057;-34
2023/12/02 04:20:58;;;;;;;22.48;14.65;;;-0.90;99.90;;;;;;5002072;28;20046;-45
2023/12/02 04:23:24;;;;;;;20.00;14.60;;;-0.90;99.90;;;;;;5011703;28;20060;-34
2023/12/02 04:25:50;;;;;;;18.23;13.63;;;-0.90;99.90;;;;;;5005291;28;20049;-34
2023/12/02 04:28:16;;;;;;;22.40;14.00;;;-0.90;99.90;;;;;;5007271;28;20052;-33
2023/12/02 04:30:42;;;;;;;21.02;13.55;;;-0.90;99.90;;;;;;4992752;28;20107;-33
2023/12/02 04:33:08;;;;;;;22.20;14.43;;;-1.00;99.90;;;;;;5011263;28;20061;-34
2023/12/02 04:35:35;;;;;;;18.15;11.95;;;-0.90;99.90;;;;;;5004544;28;20046;-33
2023/12/02 04:38:04;;;;;;;19.75;12.70;;;-1.00;99.90;;;;;;5005075;28;20064;-33
2023/12/02 04:40:31;;;;;;;19.77;12.88;;;-1.00;99.90;;;;;;5005493;28;20467;-46
2023/12/02 04:42:57;;;;;;;22.98;13.68;;;-1.00;99.90;;;;;;5006311;28;20125;-34
2023/12/02 04:45:22;;;;;;;18.55;13.13;;;-1.00;99.90;;;;;;5006110;28;20435;-33
2023/12/02 04:47:48;;;;;;;21.45;14.05;;;-1.00;99.90;;;;;;5011126;28;20045;-32
2023/12/02 04:50:14;;;;;;;21.58;14.80;;;-1.00;99.90;;;;;;5011359;28;20510;-33
2023/12/02 04:52:39;;;;;;;19.33;12.43;;;-1.00;99.90;;;;;;5007494;28;20057;-32
2023/12/02 04:55:06;;;;;;;18.55;12.35;;;-1.00;99.90;;;;;;5012034;28;20156;-33
2023/12/02 04:57:32;;;;;;;21.80;13.30;;;-1.00;99.90;;;;;;5009088;28;20149;-34
2023/12/02 04:59:57;;;;;;;21.05;14.90;;;-1.00;99.90;;;;;;5014499;28;20125;-34
2023/12/02 05:02:24;;;;;;;23.95;14.30;;;-1.10;99.90;;;;;;5009459;28;20108;-33
2023/12/02 05:04:49;;;;;;;20.23;13.73;;;-1.10;99.90;;;;;;5005794;28;20531;-33
2023/12/02 05:07:15;;;;;;;23.73;14.18;;;-1.10;99.90;;;;;;5010501;28;20062;-33
2023/12/02 05:09:41;;;;;;;20.73;13.38;;;-1.10;99.90;;;;;;5009853;28;20053;-32
2023/12/02 05:12:07;;;;;;;20.80;13.90;;;-1.10;99.90;;;;;;5005989;28;20089;-34
2023/12/02 05:14:33;;;;;;;23.58;15.40;;;-1.10;99.90;;;;;;4998158;28;20049;-33
2023/12/02 05:16:59;;;;;;;22.20;13.18;;;-1.10;99.90;;;;;;5009439;28;20042;-37
2023/12/02 05:19:25;;;;;;;20.92;14.18;;;-1.10;99.90;;;;;;5013393;28;20116;-33
2023/12/02 05:21:50;;;;;;;20.27;13.73;;;-1.10;99.90;;;;;;5013155;28;20884;-37
2023/12/02 05:24:19;;;;;;;24.67;15.20;;;-1.00;99.90;;;;;;5007951;28;20046;-34
2023/12/02 05:26:45;;;;;;;21.77;13.77;;;-1.00;99.90;;;;;;5011837;28;20480;-33
2023/12/02 05:29:11;;;;;;;21.75;14.15;;;-1.00;99.90;;;;;;5012372;28;20046;-35
2023/12/02 05:31:38;;;;;;;21.73;13.98;;;-1.00;99.90;;;;;;5009051;28;20420;-34
2023/12/02 05:34:04;;;;;;;22.20;13.25;;;-1.00;99.90;;;;;;5007576;28;20049;-38
2023/12/02 05:36:29;;;;;;;19.95;13.20;;;-1.00;99.90;;;;;;5009138;28;20137;-34
2023/12/02 05:38:55;;;;;;;20.52;14.60;;;-1.00;99.90;;;;;;5013117;28;20128;-33
2023/12/02 05:41:21;;;;;;;22.08;13.93;;;-1.00;99.90;;;;;;5012068;28;20128;-33
2023/12/02 05:43:46;;;;;;;22.27;14.18;;;-1.00;99.90;;;;;;5007421;28;20046;-36
2023/12/02 05:46:16;;;;;;;23.38;14.20;;;-1.00;99.90;;;;;;5006364;28;20359;-33
2023/12/02 05:48:43;;;;;;;23.98;14.30;;;-1.00;99.90;;;;;;5003602;28;20050;-33
2023/12/02 05:51:09;;;;;;;22.60;14.57;;;-1.00;99.90;;;;;;5007720;28;20576;-34
2023/12/02 05:53:34;;;;;;;21.48;14.32;;;-1.00;99.90;;;;;;5010353;28;20057;-33
2023/12/02 05:56:00;;;;;;;20.95;12.85;;;-1.00;99.90;;;;;;5008146;28;20057;-32
2023/12/02 05:58:26;;;;;;;23.88;14.00;;;-1.00;99.90;;;;;;5008405;28;20534;-33
2023/12/02 06:00:52;;;;;;;24.52;14.77;;;-1.00;99.90;;;;;;5008551;28;20058;-32
2023/12/02 06:03:17;;;;;;;26.25;14.85;;;-1.00;99.90;;;;;;5008932;28;20057;-33
2023/12/02 06:05:43;;;;;;;23.13;15.45;;;-1.00;99.90;;;;;;5008038;28;20080;-35
2023/12/02 06:08:09;;;;;;;21.98;14.65;;;-1.00;99.90;;;;;;5008826;28;20415;-33
2023/12/02 06:10:34;;;;;;;24.20;15.25;;;-1.10;99.90;;;;;;5008941;28;20411;-32
2023/12/02 06:13:00;;;;;;;23.80;14.82;;;-1.10;99.90;;;;;;5007808;28;20503;-35
2023/12/02 06:15:25;;;;;;;22.40;13.98;;;-1.10;99.90;;;;;;5002833;28;20119;-33
2023/12/02 06:17:56;;;;;;;21.60;14.95;;;-1.10;99.90;;;;;;5007722;28;20504;-32
2023/12/02 06:20:24;;;;;;;21.92;14.02;;;-1.10;99.90;;;;;;5010677;28;20053;-32
2023/12/02 06:22:50;;;;;;;20.65;13.82;;;-1.00;99.90;;;;;;5008505;28;20081;-32
2023/12/02 06:25:16;;;;;;;21.48;13.88;;;-1.10;99.90;;;;;;5008022;28;20057;-33
2023/12/02 06:27:42;;;;;;;22.90;14.50;;;-1.10;99.90;;;;;;5009036;28;20062;-34
2023/12/02 06:30:08;;;;;;;20.33;13.50;;;-1.00;99.90;;;;;;5003424;28;20061;-33
2023/12/02 06:32:33;;;;;;;23.50;14.07;;;-1.10;99.90;;;;;;5022823;28;20050;-54
2023/12/02 06:34:59;;;;;;;23.17;13.82;;;-1.00;99.90;;;;;;5007391;28;20046;-33
2023/12/02 06:37:25;;;;;;;21.27;12.98;;;-1.00;99.90;;;;;;5023188;28;20526;-33
2023/12/02 06:39:50;;;;;;;21.60;13.88;;;-1.00;99.90;;;;;;5007234;28;20057;-33
2023/12/02 06:42:16;;;;;;;20.77;13.13;;;-1.00;99.90;;;;;;5009881;28;20057;-33
2023/12/02 06:44:45;;;;;;;22.08;13.73;;;-1.00;99.90;;;;;;5006292;28;20052;-33
2023/12/02 06:47:10;;;;;;;21.13;13.77;;;-1.00;99.90;;;;;;5016622;28;20096;-34
2023/12/02 06:49:36;;;;;;;21.30;13.13;;;-1.00;99.90;;;;;;5011816;28;20065;-34
2023/12/02 06:52:02;;;;;;;23.95;14.35;;;-1.00;99.90;;;;;;5011699;28;20103;-33
2023/12/02 06:54:27;;;;;;;19.95;13.10;;;-1.00;99.90;;;;;;5006492;28;20041;-33
2023/12/02 06:56:53;;;;;;;23.00;13.75;;;-1.00;99.90;;;;;;5006604;28;20050;-33
2023/12/02 06:59:19;;;;;;;23.92;14.00;;;-1.00;99.90;;;;;;5008122;28;20458;-33
2023/12/02 07:01:45;;;;;;;19.92;13.63;;;-1.00;99.90;;;;;;5008073;28;20044;-33
2023/12/02 07:04:10;;;;;;;22.83;15.05;;;-1.00;99.90;;;;;;5012133;28;20049;-34
2023/12/02 07:06:39;;;;;;;21.17;13.80;;;-1.00;99.90;;;;;;5015875;28;20510;-34
2023/12/02 07:09:05;;;;;;;24.85;15.02;;;-1.00;99.90;;;;;;5006860;28;20404;-40
2023/12/02 07:11:31;;;;;;;22.20;14.02;;;-1.10;99.90;;;;;;5006960;28;20050;-33
2023/12/02 07:13:56;;;;;;;21.52;13.93;;;-1.10;99.90;;;;;;5007867;28;20092;-33
2023/12/02 07:16:22;;;;;;;20.17;13.40;;;-1.10;99.90;;;;;;5010418;28;20566;-33
2023/12/02 07:18:48;;;;;;;21.40;14.07;;;-1.20;99.90;;;;;;5003483;28;20053;-33
2023/12/02 07:21:13;;;;;;;21.15;13.82;;;-1.20;99.90;;;;;;5003250;28;20053;-33
2023/12/02 07:23:39;;;;;;;22.10;13.50;;;-1.20;99.90;;;;;;5009461;28;20045;-33
2023/12/02 07:26:05;;;;;;;19.48;13.45;;;-1.20;99.90;;;;;;5003259;28;20065;-33
2023/12/02 07:28:30;;;;;;;23.42;14.38;;;-1.20;99.90;;;;;;5005207;28;20054;-33
2023/12/02 07:30:56;;;;;;;21.75;14.07;;;-1.20;99.90;;;;;;5004188;28;20110;-36
2023/12/02 07:33:23;;;;;;;22.88;14.40;;;-1.20;99.90;;;;;;5008186;28;20057;-34
2023/12/02 07:35:48;;;;;;;21.85;13.52;;;-1.20;99.90;;;;;;5015717;28;20050;-33
2023/12/02 07:38:14;;;;;;;23.25;14.40;;;-1.20;99.90;;;;;;5004904;28;20073;-34
2023/12/02 07:40:40;;;;;;;23.98;14.15;;;-1.20;99.90;;;;;;5007141;28;20054;-33
2023/12/02 07:43:06;;;;;;;21.08;13.65;;;-1.20;99.90;;;;;;5010256;28;20045;-33
2023/12/02 07:45:31;;;;;;;22.67;15.32;;;-1.20;99.90;;;;;;5013068;28;20069;-38
2023/12/02 07:47:57;;;;;;;20.45;13.13;;;-1.20;99.90;;;;;;5010891;28;20133;-32
2023/12/02 07:50:23;;;;;;;22.50;13.93;;;-1.20;99.90;;;;;;5009926;28;20052;-33
2023/12/02 07:52:49;;;;;;;23.73;15.13;;;-1.30;99.90;;;;;;5005850;28;20049;-51
2023/12/02 07:55:15;;;;;;;24.48;16.30;;;-1.30;99.90;;;;;;5003676;28;20057;-32
2023/12/02 07:57:40;;;;;;;25.98;16.23;;;-1.30;99.90;;;;;;5011302;28;20160;-32
2023/12/02 08:00:07;;;;;;;24.15;15.13;;;-1.20;99.90;;;;;;5008731;28;20137;-32
2023/12/02 08:02:33;;;;;;;23.48;16.40;;;-1.30;99.90;;;;;;5006474;28;20553;-35
2023/12/02 08:04:59;;;;;;;23.10;14.68;;;-1.30;99.90;;;;;;5004291;28;20455;-33
2023/12/02 08:07:25;;;;;;;21.30;14.68;;;-1.30;99.90;;;;;;5013370;28;20049;-33
2023/12/02 08:09:51;;;;;;;22.15;14.93;;;-1.20;99.90;;;;;;5005262;28;20054;-32
2023/12/02 08:12:16;;;;;;;20.45;14.45;;;-1.20;99.90;;;;;;5000420;28;20050;-33
2023/12/02 08:14:42;;;;;;;22.85;15.07;;;-1.20;99.90;;;;;;5006908;28;20567;-49
2023/12/02 08:17:08;;;;;;;29.42;17.25;;;-1.20;99.90;;;;;;5004963;28;20064;-34
2023/12/02 08:19:34;;;;;;;24.30;16.67;;;-1.20;99.90;;;;;;5010249;28;20057;-33
2023/12/02 08:21:59;;;;;;;22.33;16.08;;;-1.20;99.90;;;;;;5007987;28;20061;-44
2023/12/02 08:24:25;;;;;;;26.23;17.30;;;-1.10;99.90;;;;;;5007349;28;20062;-32
2023/12/02 08:26:51;;;;;;;29.98;16.95;;;-1.10;99.90;;;;;;5021410;28;20046;-32
2023/12/02 08:29:17;;;;;;;29.50;18.25;;;-1.10;99.90;;;;;;5009491;28;20050;-32
2023/12/02 08:31:42;;;;;;;26.77;16.98;;;-1.10;99.90;;;;;;5010749;28;20045;-32
2023/12/02 08:34:08;;;;;;;27.17;17.42;;;-1.10;99.90;;;;;;5007702;28;20053;-32
2023/12/02 08:36:34;;;;;;;24.02;16.58;;;-1.10;99.90;;;;;;5005235;28;20540;-33
2023/12/02 08:38:59;;;;;;;25.98;17.20;;;-1.00;99.90;;;;;;5007000;28;20097;-32
2023/12/02 08:41:25;;;;;;;27.40;18.65;;;-1.00;99.90;;;;;;5006412;28;20049;-32
2023/12/02 08:43:50;;;;;;;25.65;16.23;;;-1.00;99.90;;;;;;5011163;28;20050;-33
2023/12/02 08:46:16;;;;;;;26.48;17.27;;;-0.90;99.90;;;;;;5011884;28;20447;-33
2023/12/02 08:48:43;;;;;;;28.02;16.80;;;-0.90;99.90;;;;;;5022589;28;20137;-33
2023/12/02 08:51:08;;;;;;;28.67;17.98;;;-0.80;99.90;;;;;;5010883;28;20097;-35
2023/12/02 08:53:34;;;;;;;27.05;16.80;;;-0.80;99.90;;;;;;5012589;28;20522;-39
2023/12/02 08:56:00;;;;;;;26.45;16.77;;;-0.80;99.90;;;;;;5004678;28;20042;-33
2023/12/02 08:58:26;;;;;;;28.40;16.98;;;-0.80;99.90;;;;;;5009465;28;20144;-33
2023/12/02 09:00:51;;;;;;;29.23;17.73;;;-0.80;99.90;;;;;;5012976;28;20080;-32
2023/12/02 09:03:18;;;;;;;27.95;17.15;;;-0.70;99.90;;;;;;5007295;28;20050;-33
2023/12/02 09:05:44;;;;;;;24.90;17.10;;;-0.60;99.90;;;;;;5015598;28;20081;-33
2023/12/02 09:08:09;;;;;;;29.80;19.13;;;-0.60;99.90;;;;;;5013223;28;20045;-33
2023/12/02 09:10:35;;;;;;;29.83;18.08;;;-0.60;99.90;;;;;;5005679;28;20084;-33
2023/12/02 09:13:06;;;;;;;29.98;18.10;;;-0.60;99.90;;;;;;5009626;28;20073;-33
2023/12/02 09:15:39;;;;;;;29.85;17.42;;;-0.60;99.90;;;;;;5011020;28;20049;-33
2023/12/02 09:18:05;;;;;;;26.50;16.98;;;-0.60;99.90;;;;;;5008610;28;20137;-33
2023/12/02 09:20:51;;;;;;;33.22;18.88;;;-0.50;99.90;;;;;;5004290;28;20599;-33
2023/12/02 09:23:18;;;;;;;31.30;19.15;;;-0.50;99.90;;;;;;5005332;28;20054;-33
2023/12/02 09:25:45;;;;;;;36.10;19.42;;;-0.50;99.90;;;;;;5006477;28;20053;-39
2023/12/02 09:28:15;;;;;;;29.20;17.15;;;-0.50;99.90;;;;;;5005308;28;20065;-32
2023/12/02 09:30:51;;;;;;;26.60;17.55;;;-0.50;99.90;;;;;;5019806;28;20057;-32
2023/12/02 09:33:16;;;;;;;30.83;18.48;;;-0.50;99.90;;;;;;5010888;28;20046;-32
2023/12/02 09:35:43;;;;;;;27.45;16.73;;;-0.40;99.90;;;;;;5009900;28;20388;-33
2023/12/02 09:38:08;;;;;;;30.75;18.75;;;-0.40;99.90;;;;;;5009941;28;20068;-35
2023/12/02 09:41:06;;;;;;;29.73;17.90;;;-0.40;99.90;;;;;;5004097;28;20054;-34
2023/12/02 09:43:32;;;;;;;28.00;17.40;;;-0.40;99.90;;;;;;5005251;28;20061;-33
2023/12/02 09:46:27;;;;;;;30.42;18.45;;;-0.30;99.90;;;;;;5005930;28;20680;-33
2023/12/02 09:49:23;;;;;;;26.67;18.15;;;-0.30;99.90;;;;;;5002024;28;20084;-33
2023/12/02 09:52:13;;;;;;;27.73;18.63;;;-0.20;99.90;;;;;;5006017;28;20054;-37
2023/12/02 09:54:58;;;;;;;25.95;17.45;;;-0.20;99.90;;;;;;5003973;28;20111;-33
2023/12/02 09:57:46;;;;;;;26.02;17.55;;;-0.10;99.90;;;;;;5006224;28;20072;-34
2023/12/02 10:00:29;;;;;;;30.92;17.42;;;-0.10;99.90;;;;;;5003592;28;20045;-33
2023/12/02 10:03:12;;;;;;;25.92;17.42;;;-0.10;99.90;;;;;;5003079;28;20149;-33
2023/12/02 10:06:08;;;;;;;33.58;19.80;;;-0.10;99.90;;;;;;5002806;28;20053;-32
2023/12/02 10:08:45;;;;;;;30.40;17.38;;;0.00;99.90;;;;;;5002485;28;20050;-33
2023/12/02 10:11:29;;;;;;;29.27;18.42;;;0.00;99.90;;;;;;5003074;28;20054;-32
2023/12/02 10:14:10;;;;;;;31.25;20.52;;;0.00;99.90;;;;;;5000964;28;20054;-32
2023/12/02 10:16:37;;;;;;;30.67;19.63;;;0.00;99.90;;;;;;5003974;28;20054;-42
2023/12/02 10:19:04;;;;;;;29.60;22.23;;;0.10;99.90;;;;;;5003074;28;20057;-32
2023/12/02 10:21:35;;;;;;;29.88;17.75;;;0.10;99.90;;;;;;5004661;28;20053;-33
2023/12/02 10:24:05;;;;;;;31.17;19.67;;;0.10;99.90;;;;;;5016008;28;20081;-32
2023/12/02 10:26:51;;;;;;;30.17;21.25;;;0.20;99.90;;;;;;5003663;28;20053;-33
2023/12/02 10:29:53;;;;;;;27.13;19.30;;;0.20;99.90;;;;;;5001843;28;20053;-33
2023/12/02 10:32:27;;;;;;;31.48;20.20;;;0.30;99.90;;;;;;4984177;28;20142;-33
2023/12/02 10:35:10;;;;;;;29.63;20.23;;;0.30;99.90;;;;;;5004759;28;20423;-43
2023/12/02 10:37:39;;;;;;;29.45;19.25;;;0.30;99.90;;;;;;5007535;28;20104;-34
2023/12/02 10:40:09;;;;;;;29.10;21.55;;;0.30;99.90;;;;;;5007236;28;20159;-36
2023/12/02 10:43:10;;;;;;;31.83;20.25;;;0.40;99.90;;;;;;5004715;28;20514;-33
2023/12/02 10:45:39;;;;;;;32.50;26.23;;;0.40;99.90;;;;;;5004322;28;20077;-33
2023/12/02 10:48:07;;;;;;;32.42;20.77;;;0.40;99.90;;;;;;5004684;28;20076;-33
2023/12/02 10:50:34;;;;;;;31.63;19.70;;;0.40;99.90;;;;;;5005712;28;20046;-34
2023/12/02 10:53:04;;;;;;;36.90;27.98;;;0.50;99.90;;;;;;5005928;28;20057;-33
2023/12/02 10:55:31;;;;;;;34.95;21.42;;;0.50;99.90;;;;;;4998346;28;20093;-33
2023/12/02 10:57:59;;;;;;;31.58;24.88;;;0.60;99.90;;;;;;5000136;28;20137;-33
2023/12/02 11:00:29;;;;;;;34.00;23.27;;;0.60;99.90;;;;;;5000413;28;20054;-33
2023/12/02 11:03:04;;;;;;;33.03;23.92;;;0.70;99.90;;;;;;5002379;28;20095;-35
2023/12/02 11:05:37;;;;;;;31.88;23.02;;;0.70;99.90;;;;;;5000221;28;20062;-36
2023/12/02 11:08:29;;;;;;;28.77;18.73;;;0.70;99.90;;;;;;5007885;28;20136;-33
2023/12/02 11:10:58;;;;;;;30.50;20.92;;;0.70;99.90;;;;;;4988237;28;20069;-33
2023/12/02 11:13:28;;;;;;;27.70;18.30;;;0.70;99.90;;;;;;4996969;28;20419;-34
2023/12/02 11:16:21;;;;;;;30.90;23.20;;;0.60;99.90;;;;;;5001827;28;20057;-34
2023/12/02 11:19:10;;;;;;;34.05;27.25;;;0.60;99.90;;;;;;4999255;28;20077;-33
2023/12/02 11:22:07;;;;;;;32.35;22.30;;;0.70;99.90;;;;;;5001153;28;20065;-33
2023/12/02 11:25:00;;;;;;;30.58;20.30;;;0.70;99.90;;;;;;4998907;28;20045;-51
2023/12/02 11:28:00;;;;;;;35.85;22.25;;;0.70;99.90;;;;;;4999342;28;20091;-33
2023/12/02 11:30:56;;;;;;;30.33;18.13;;;0.80;99.90;;;;;;5011811;28;20057;-32
2023/12/02 11:33:37;;;;;;;33.55;20.08;;;0.80;99.90;;;;;;5024278;28;20061;-39
2023/12/02 11:36:06;;;;;;;36.20;26.90;;;0.80;99.90;;;;;;5000391;28;20582;-48
2023/12/02 11:38:33;;;;;;;36.35;25.65;;;0.80;99.90;;;;;;5006159;28;20069;-37
2023/12/02 11:41:07;;;;;;;31.15;17.98;;;0.90;99.90;;;;;;5008754;28;20054;-33
2023/12/02 11:43:48;;;;;;;35.33;26.83;;;0.90;99.90;;;;;;5010275;28;20050;-34
2023/12/02 11:46:18;;;;;;;38.55;26.13;;;1.00;99.90;;;;;;5017432;28;20136;-33
2023/12/02 11:48:58;;;;;;;37.80;26.77;;;1.00;99.90;;;;;;5008070;28;20515;-33
2023/12/02 11:51:36;;;;;;;36.55;28.45;;;1.10;99.90;;;;;;5005840;28;20077;-33
2023/12/02 11:54:37;;;;;;;34.90;26.00;;;1.10;99.90;;;;;;5008389;28;20504;-33
2023/12/02 11:57:18;;;;;;;34.40;28.55;;;1.10;99.90;;;;;;5006643;28;20042;-38
2023/12/02 12:00:06;;;;;;;37.67;27.63;;;1.10;99.90;;;;;;5005582;28;20049;-34
2023/12/02 12:02:46;;;;;;;36.65;26.27;;;1.10;99.90;;;;;;5006990;28;20407;-34
2023/12/02 12:05:30;;;;;;;37.20;27.10;;;1.20;99.90;;;;;;5003474;28;20049;-32
2023/12/02 12:08:18;;;;;;;36.08;27.75;;;1.20;99.90;;;;;;5004076;28;20042;-33
2023/12/02 12:10:46;;;;;;;33.70;26.92;;;1.20;99.90;;;;;;5007899;28;20052;-33
2023/12/02 12:13:14;;;;;;;32.47;24.40;;;1.20;99.90;;;;;;5014423;28;20144;-33
2023/12/02 12:15:40;;;;;;;32.60;25.42;;;1.30;99.90;;;;;;5004358;28;20058;-33
2023/12/02 12:18:05;;;;;;;33.83;22.55;;;1.30;99.90;;;;;;5007523;28;20096;-33
2023/12/02 12:20:31;;;;;;;33.17;22.20;;;1.30;99.90;;;;;;5005890;28;20076;-33
2023/12/02 12:22:58;;;;;;;32.22;16.60;;;1.30;99.90;;;;;;5007457;28;20064;-44
2023/12/02 12:25:29;;;;;;;35.03;23.90;;;1.30;99.90;;;;;;5007229;28;20050;-33
2023/12/02 12:28:01;;;;;;;31.88;21.23;;;1.30;99.90;;;;;;5007729;28;20057;-42
2023/12/02 12:30:41;;;;;;;34.25;24.10;;;1.20;99.90;;;;;;5003123;28;20564;-33
2023/12/02 12:33:10;;;;;;;34.92;25.35;;;1.20;99.90;;;;;;5004268;28;20499;-33
2023/12/02 12:35:36;;;;;;;37.65;24.85;;;1.30;99.90;;;;;;5006791;28;20050;-33